»·PEaware :: DAL165 KLAS-KSAN

DAL165 :: KLAS-KSAN

FLIGHT INFORMATION

Flight Status: Arrived
Operator:
Delta Air Lines
More flights by this operator :: More flights under this callsign
Pilot: Keith A. (7560)
Aircraft: BOEING 737-800
(B738)
More flights by this aircraft type
Origin: KLAS McCarran Intl
United States
Destination: KSAN San Diego Intl-Lindbergh
United States
More flights between these airports :: More routes between these airports
Route: +BOACH8 TNP LYNDI4
File this flight plan on PilotEdge
Remarks: Sample flight plan
Altitude:
(Current/Filed)
27,000ft
Speed:
(Current/Filed)
115kts
Departed: 11-Oct-17 07:05 PM
Arrived: 11-Oct-17 07:59 PM
Distance/Time
Traveled:
225nm/0:54
Distance/Time
To Go:
Arrived

Flight Plot

Page will automatically refresh every two minutes.

Flight plan parsing failed; only flown route is shown


Map Options




Map Legend


Flown Route
Filed Route
Departure Airport
Arrival Airport
Navaid (VOR, NDB)
Fix

Horizontal Profiles

Position Reports

Time Latitude Longitude Heading Altitude Ground
Speed
11-Oct-17 18:38 36.082056 -115.148231 61 2097ft 0kts
11-Oct-17 18:39 36.082056 -115.148231 61 2097ft 0kts
11-Oct-17 18:40 36.082056 -115.148231 61 2097ft 0kts
11-Oct-17 18:41 36.082056 -115.148231 61 2097ft 0kts
11-Oct-17 18:42 36.082056 -115.148231 61 2097ft 0kts
11-Oct-17 18:44 36.082056 -115.148231 61 2097ft 0kts
11-Oct-17 18:45 36.082056 -115.148231 61 2097ft 0kts
11-Oct-17 18:46 36.082056 -115.148231 61 2097ft 0kts
11-Oct-17 18:47 36.082056 -115.148231 61 2097ft 0kts
11-Oct-17 18:48 36.082056 -115.148231 61 2097ft 0kts
11-Oct-17 18:49 36.082056 -115.148231 61 2097ft 0kts
11-Oct-17 18:50 36.082056 -115.148231 61 2097ft 0kts
11-Oct-17 18:51 36.082056 -115.148231 61 2097ft 0kts
11-Oct-17 18:52 36.082056 -115.148231 61 2097ft 0kts
11-Oct-17 18:53 36.082056 -115.148231 61 2097ft 0kts
11-Oct-17 18:54 36.082056 -115.148231 61 2097ft 0kts
11-Oct-17 18:55 36.082056 -115.148231 61 2097ft 0kts
11-Oct-17 18:56 36.082056 -115.148231 61 2097ft 0kts
11-Oct-17 18:57 36.081965 -115.148456 66 2098ft 5kts
11-Oct-17 18:58 36.081925 -115.148898 155 2100ft 0kts
11-Oct-17 18:59 36.081777 -115.148835 162 2100ft 3kts
11-Oct-17 19:00 36.079767 -115.147738 153 2100ft 12kts
11-Oct-17 19:01 36.078406 -115.145586 96 2097ft 13kts
11-Oct-17 19:02 36.078260 -115.142645 91 2087ft 11kts
11-Oct-17 19:03 36.078268 -115.138213 90 2075ft 12kts
11-Oct-17 19:04 36.078278 -115.133741 90 2060ft 11kts
11-Oct-17 19:05 36.078286 -115.131132 88 2053ft 13kts
11-Oct-17 19:06 36.078273 -115.127323 89 2044ft 15kts
11-Oct-17 19:07 36.077925 -115.122187 129 2037ft 8kts
11-Oct-17 19:08 36.077400 -115.121397 141 2037ft 0kts
11-Oct-17 19:09 36.076592 -115.121308 209 2038ft 8kts
11-Oct-17 19:10 36.076411 -115.124911 268 2043ft 54kts
11-Oct-17 19:11 36.076131 -115.171601 265 2848ft 177kts
11-Oct-17 19:12 36.061952 -115.219269 254 3806ft 166kts
11-Oct-17 19:13 36.043850 -115.278526 285 4311ft 269kts
11-Oct-17 19:14 36.010178 -115.323681 179 7788ft 217kts
11-Oct-17 19:15 35.946159 -115.309539 176 10234ft 254kts
11-Oct-17 19:16 35.883151 -115.302636 189 13561ft 228kts
11-Oct-17 19:17 35.811977 -115.306441 176 14932ft 295kts
11-Oct-17 19:18 35.728705 -115.297119 181 16727ft 307kts
11-Oct-17 19:19 35.643792 -115.294406 189 18713ft 311kts
11-Oct-17 19:20 35.557154 -115.298707 189 20692ft 319kts
11-Oct-17 19:21 35.470650 -115.301890 189 22608ft 328kts
11-Oct-17 19:22 35.383952 -115.304056 188 23996ft 338kts
11-Oct-17 19:23 35.291449 -115.305588 189 25402ft 338kts
11-Oct-17 19:24 35.197597 -115.307992 191 26937ft 344kts
11-Oct-17 19:25 35.101621 -115.314978 192 26961ft 348kts
11-Oct-17 19:26 35.005646 -115.321901 191 26957ft 351kts
11-Oct-17 19:27 34.907967 -115.329744 191 26957ft 358kts
11-Oct-17 19:28 34.811431 -115.338401 191 26960ft 360kts
11-Oct-17 19:29 34.716849 -115.364241 204 26961ft 350kts
11-Oct-17 19:30 34.624902 -115.399915 204 27001ft 349kts
11-Oct-17 19:31 34.534302 -115.438979 206 27055ft 347kts
11-Oct-17 19:32 34.443940 -115.478464 206 27058ft 347kts
11-Oct-17 19:33 34.353733 -115.517847 206 27057ft 347kts
11-Oct-17 19:34 34.279592 -115.584372 228 27057ft 333kts
11-Oct-17 19:34 34.223470 -115.647980 226 27056ft 334kts
11-Oct-17 19:36 34.146094 -115.731905 226 27065ft 334kts
11-Oct-17 19:36 34.087677 -115.792509 217 27063ft 339kts
11-Oct-17 19:38 33.993829 -115.861103 216 26991ft 340kts
11-Oct-17 19:39 33.912401 -115.918505 215 25924ft 337kts
11-Oct-17 19:39 33.853296 -115.970595 221 24576ft 328kts
11-Oct-17 19:40 33.779573 -116.032106 217 23193ft 325kts
11-Oct-17 19:41 33.705192 -116.090386 217 21806ft 319kts
11-Oct-17 19:42 33.632567 -116.147981 217 20719ft 316kts
11-Oct-17 19:43 33.560379 -116.206040 217 19105ft 312kts
11-Oct-17 19:44 33.490161 -116.263472 217 17407ft 306kts
11-Oct-17 19:45 33.420941 -116.321145 217 15697ft 303kts
11-Oct-17 19:46 33.354475 -116.377153 217 14969ft 301kts
11-Oct-17 19:47 33.285909 -116.435682 217 13106ft 305kts
11-Oct-17 19:48 33.215377 -116.490946 213 11311ft 305kts
11-Oct-17 19:49 33.145994 -116.542559 213 9515ft 294kts
11-Oct-17 19:50 33.081197 -116.590125 213 9065ft 276kts
11-Oct-17 19:51 33.016283 -116.638210 213 9061ft 275kts
11-Oct-17 19:52 32.953593 -116.685296 213 8994ft 274kts
11-Oct-17 19:53 32.890313 -116.733243 213 8992ft 273kts
11-Oct-17 19:54 32.826510 -116.781594 213 7829ft 269kts
11-Oct-17 19:55 32.764498 -116.828232 213 5939ft 255kts
11-Oct-17 19:56 32.709851 -116.869859 214 5088ft 215kts
11-Oct-17 19:57 32.672046 -116.922150 252 4701ft 218kts
11-Oct-17 19:58 32.680890 -116.988855 286 3544ft 203kts
11-Oct-17 19:59 32.696853 -117.046938 291 2443ft 174kts
11-Oct-17 20:00 32.714416 -117.101534 289 2454ft 175kts
11-Oct-17 20:01 32.724487 -117.150339 287 922ft 152kts
11-Oct-17 20:02 32.733634 -117.189952 287 21ft 45kts
11-Oct-17 20:03 32.734132 -117.195289 249 21ft 0kts
11-Oct-17 20:04 32.734132 -117.195289 249 21ft 0kts
11-Oct-17 20:05 32.734369 -117.197332 287 18ft 8kts
11-Oct-17 20:06 32.734299 -117.199567 196 18ft 6kts
11-Oct-17 20:07 32.733334 -117.199044 112 18ft 0kts

Navigation Log

Ident Type
Flight plan parsing failed, navigation log unavailable